sensor_id;sensor_type;location;lat;lon;timestamp;P1;durP1;ratioP1;P2;durP2;ratioP2
31594;SDS011;18200;48.726;8.892;2024-03-02T00:02:17;17.98;;;10.45;;
31594;SDS011;18200;48.726;8.892;2024-03-02T00:06:19;17.95;;;9.52;;
31594;SDS011;18200;48.726;8.892;2024-03-02T00:10:22;20.92;;;12.35;;
31594;SDS011;18200;48.726;8.892;2024-03-02T00:14:29;20.88;;;12.38;;
31594;SDS011;18200;48.726;8.892;2024-03-02T00:18:30;24.90;;;13.65;;
31594;SDS011;18200;48.726;8.892;2024-03-02T00:22:34;27.00;;;13.98;;
31594;SDS011;18200;48.726;8.892;2024-03-02T00:26:37;25.40;;;14.20;;
31594;SDS011;18200;48.726;8.892;2024-03-02T00:34:43;27.05;;;14.60;;
31594;SDS011;18200;48.726;8.892;2024-03-02T00:38:51;30.38;;;14.43;;
31594;SDS011;18200;48.726;8.892;2024-03-02T00:42:55;26.20;;;13.85;;
31594;SDS011;18200;48.726;8.892;2024-03-02T00:46:56;24.88;;;14.00;;
31594;SDS011;18200;48.726;8.892;2024-03-02T00:50:56;27.75;;;14.77;;
31594;SDS011;18200;48.726;8.892;2024-03-02T00:54:57;30.52;;;16.33;;
31594;SDS011;18200;48.726;8.892;2024-03-02T00:58:57;29.77;;;16.10;;
31594;SDS011;18200;48.726;8.892;2024-03-02T01:02:58;32.50;;;15.48;;
31594;SDS011;18200;48.726;8.892;2024-03-02T01:06:58;27.73;;;14.90;;
31594;SDS011;18200;48.726;8.892;2024-03-02T01:10:58;27.67;;;15.43;;
31594;SDS011;18200;48.726;8.892;2024-03-02T01:14:59;28.48;;;15.15;;
31594;SDS011;18200;48.726;8.892;2024-03-02T01:18:59;25.73;;;14.95;;
31594;SDS011;18200;48.726;8.892;2024-03-02T01:22:59;28.35;;;15.75;;
31594;SDS011;18200;48.726;8.892;2024-03-02T01:27:00;28.30;;;15.07;;
31594;SDS011;18200;48.726;8.892;2024-03-02T01:31:00;25.90;;;15.05;;
31594;SDS011;18200;48.726;8.892;2024-03-02T01:35:02;26.80;;;14.48;;
31594;SDS011;18200;48.726;8.892;2024-03-02T01:39:02;25.25;;;14.15;;
31594;SDS011;18200;48.726;8.892;2024-03-02T01:43:06;30.35;;;15.90;;
31594;SDS011;18200;48.726;8.892;2024-03-02T01:51:08;26.13;;;14.82;;
31594;SDS011;18200;48.726;8.892;2024-03-02T01:55:08;30.27;;;14.18;;
31594;SDS011;18200;48.726;8.892;2024-03-02T01:59:12;26.95;;;14.52;;
31594;SDS011;18200;48.726;8.892;2024-03-02T02:03:14;26.33;;;14.35;;
31594;SDS011;18200;48.726;8.892;2024-03-02T02:07:14;29.35;;;15.70;;
31594;SDS011;18200;48.726;8.892;2024-03-02T02:11:15;32.00;;;17.48;;
31594;SDS011;18200;48.726;8.892;2024-03-02T02:15:25;27.52;;;14.85;;
31594;SDS011;18200;48.726;8.892;2024-03-02T02:19:26;26.90;;;14.20;;
31594;SDS011;18200;48.726;8.892;2024-03-02T02:23:27;26.30;;;15.10;;
31594;SDS011;18200;48.726;8.892;2024-03-02T02:27:27;31.45;;;16.10;;
31594;SDS011;18200;48.726;8.892;2024-03-02T02:31:36;26.02;;;14.65;;
31594;SDS011;18200;48.726;8.892;2024-03-02T02:35:37;26.73;;;14.95;;
31594;SDS011;18200;48.726;8.892;2024-03-02T02:39:37;30.83;;;16.05;;
31594;SDS011;18200;48.726;8.892;2024-03-02T02:43:38;28.08;;;15.68;;
31594;SDS011;18200;48.726;8.892;2024-03-02T02:47:43;27.92;;;14.38;;
31594;SDS011;18200;48.726;8.892;2024-03-02T02:51:44;26.23;;;14.38;;
31594;SDS011;18200;48.726;8.892;2024-03-02T02:55:44;27.75;;;15.40;;
31594;SDS011;18200;48.726;8.892;2024-03-02T02:59:45;30.45;;;15.38;;
31594;SDS011;18200;48.726;8.892;2024-03-02T03:03:45;29.38;;;15.00;;
31594;SDS011;18200;48.726;8.892;2024-03-02T03:07:45;29.67;;;14.55;;
31594;SDS011;18200;48.726;8.892;2024-03-02T03:11:48;24.33;;;14.48;;
31594;SDS011;18200;48.726;8.892;2024-03-02T03:15:48;29.27;;;16.13;;
31594;SDS011;18200;48.726;8.892;2024-03-02T03:19:49;29.02;;;15.57;;
31594;SDS011;18200;48.726;8.892;2024-03-02T03:23:50;27.75;;;15.25;;
31594;SDS011;18200;48.726;8.892;2024-03-02T03:27:50;33.67;;;17.33;;
31594;SDS011;18200;48.726;8.892;2024-03-02T03:31:52;31.50;;;16.45;;
31594;SDS011;18200;48.726;8.892;2024-03-02T03:35:52;30.45;;;17.40;;
31594;SDS011;18200;48.726;8.892;2024-03-02T03:39:53;31.85;;;17.40;;
31594;SDS011;18200;48.726;8.892;2024-03-02T03:43:53;30.25;;;16.00;;
31594;SDS011;18200;48.726;8.892;2024-03-02T03:47:54;30.17;;;16.60;;
31594;SDS011;18200;48.726;8.892;2024-03-02T03:51:55;40.42;;;19.65;;
31594;SDS011;18200;48.726;8.892;2024-03-02T03:55:56;36.72;;;19.45;;
31594;SDS011;18200;48.726;8.892;2024-03-02T03:59:56;31.75;;;17.08;;
31594;SDS011;18200;48.726;8.892;2024-03-02T04:03:57;35.10;;;18.58;;
31594;SDS011;18200;48.726;8.892;2024-03-02T04:07:58;39.08;;;18.10;;
31594;SDS011;18200;48.726;8.892;2024-03-02T04:11:58;40.17;;;18.27;;
31594;SDS011;18200;48.726;8.892;2024-03-02T04:15:58;33.83;;;15.75;;
31594;SDS011;18200;48.726;8.892;2024-03-02T04:19:59;32.55;;;16.55;;
31594;SDS011;18200;48.726;8.892;2024-03-02T04:24:00;31.08;;;15.00;;
31594;SDS011;18200;48.726;8.892;2024-03-02T04:28:00;31.80;;;16.92;;
31594;SDS011;18200;48.726;8.892;2024-03-02T04:32:01;31.17;;;15.35;;
31594;SDS011;18200;48.726;8.892;2024-03-02T04:36:01;33.58;;;16.90;;
31594;SDS011;18200;48.726;8.892;2024-03-02T04:40:01;32.45;;;15.85;;
31594;SDS011;18200;48.726;8.892;2024-03-02T04:44:02;33.25;;;16.88;;
31594;SDS011;18200;48.726;8.892;2024-03-02T04:48:02;33.97;;;16.55;;
31594;SDS011;18200;48.726;8.892;2024-03-02T04:52:03;33.80;;;16.25;;
31594;SDS011;18200;48.726;8.892;2024-03-02T04:56:03;26.20;;;13.90;;
31594;SDS011;18200;48.726;8.892;2024-03-02T05:00:22;29.77;;;14.73;;
31594;SDS011;18200;48.726;8.892;2024-03-02T05:04:23;27.98;;;14.73;;
31594;SDS011;18200;48.726;8.892;2024-03-02T05:08:23;30.95;;;15.68;;
31594;SDS011;18200;48.726;8.892;2024-03-02T05:12:23;27.25;;;14.27;;
31594;SDS011;18200;48.726;8.892;2024-03-02T05:16:42;30.90;;;15.25;;
31594;SDS011;18200;48.726;8.892;2024-03-02T05:20:42;30.95;;;15.82;;
31594;SDS011;18200;48.726;8.892;2024-03-02T05:24:43;30.80;;;15.95;;
31594;SDS011;18200;48.726;8.892;2024-03-02T05:28:43;32.75;;;17.92;;
31594;SDS011;18200;48.726;8.892;2024-03-02T05:32:43;32.22;;;16.42;;
31594;SDS011;18200;48.726;8.892;2024-03-02T05:36:44;30.95;;;16.92;;
31594;SDS011;18200;48.726;8.892;2024-03-02T05:40:44;30.35;;;15.07;;
31594;SDS011;18200;48.726;8.892;2024-03-02T05:44:44;33.10;;;16.15;;
31594;SDS011;18200;48.726;8.892;2024-03-02T05:48:45;42.85;;;18.05;;
31594;SDS011;18200;48.726;8.892;2024-03-02T05:52:45;34.25;;;17.17;;
31594;SDS011;18200;48.726;8.892;2024-03-02T05:56:46;32.95;;;16.70;;
31594;SDS011;18200;48.726;8.892;2024-03-02T06:00:47;34.90;;;15.68;;
31594;SDS011;18200;48.726;8.892;2024-03-02T06:04:47;38.15;;;18.00;;
31594;SDS011;18200;48.726;8.892;2024-03-02T06:08:48;35.95;;;17.48;;
31594;SDS011;18200;48.726;8.892;2024-03-02T06:12:48;36.85;;;18.70;;
31594;SDS011;18200;48.726;8.892;2024-03-02T06:16:49;42.22;;;19.75;;
31594;SDS011;18200;48.726;8.892;2024-03-02T06:20:49;53.97;;;23.95;;
31594;SDS011;18200;48.726;8.892;2024-03-02T06:24:49;39.10;;;19.10;;
31594;SDS011;18200;48.726;8.892;2024-03-02T06:28:50;33.47;;;17.20;;
31594;SDS011;18200;48.726;8.892;2024-03-02T06:32:50;39.05;;;18.85;;
31594;SDS011;18200;48.726;8.892;2024-03-02T06:36:51;39.53;;;18.73;;
31594;SDS011;18200;48.726;8.892;2024-03-02T06:40:51;34.25;;;17.90;;
31594;SDS011;18200;48.726;8.892;2024-03-02T06:44:51;34.20;;;16.80;;
31594;SDS011;18200;48.726;8.892;2024-03-02T06:48:52;46.70;;;23.38;;
31594;SDS011;18200;48.726;8.892;2024-03-02T06:52:52;36.83;;;18.05;;
31594;SDS011;18200;48.726;8.892;2024-03-02T06:56:53;41.38;;;19.80;;
31594;SDS011;18200;48.726;8.892;2024-03-02T07:00:53;43.08;;;20.25;;
31594;SDS011;18200;48.726;8.892;2024-03-02T07:04:53;48.58;;;22.23;;
31594;SDS011;18200;48.726;8.892;2024-03-02T07:08:54;47.53;;;22.45;;
31594;SDS011;18200;48.726;8.892;2024-03-02T07:12:54;44.63;;;22.38;;
31594;SDS011;18200;48.726;8.892;2024-03-02T07:16:55;46.85;;;22.52;;
31594;SDS011;18200;48.726;8.892;2024-03-02T07:20:55;44.17;;;20.77;;
31594;SDS011;18200;48.726;8.892;2024-03-02T07:24:58;36.50;;;18.83;;
31594;SDS011;18200;48.726;8.892;2024-03-02T07:28:58;40.30;;;20.48;;
31594;SDS011;18200;48.726;8.892;2024-03-02T07:32:59;39.35;;;20.27;;
31594;SDS011;18200;48.726;8.892;2024-03-02T07:36:59;39.42;;;19.27;;
31594;SDS011;18200;48.726;8.892;2024-03-02T07:41:00;40.28;;;19.13;;
31594;SDS011;18200;48.726;8.892;2024-03-02T07:45:01;43.65;;;19.90;;
31594;SDS011;18200;48.726;8.892;2024-03-02T07:49:01;49.00;;;23.42;;
31594;SDS011;18200;48.726;8.892;2024-03-02T07:53:01;41.25;;;20.15;;
31594;SDS011;18200;48.726;8.892;2024-03-02T07:57:02;34.28;;;17.73;;
31594;SDS011;18200;48.726;8.892;2024-03-02T08:01:03;40.10;;;20.15;;
31594;SDS011;18200;48.726;8.892;2024-03-02T08:05:03;36.95;;;19.88;;
31594;SDS011;18200;48.726;8.892;2024-03-02T08:09:04;43.85;;;23.52;;
31594;SDS011;18200;48.726;8.892;2024-03-02T08:13:09;43.55;;;23.30;;
31594;SDS011;18200;48.726;8.892;2024-03-02T08:17:09;42.95;;;21.52;;
31594;SDS011;18200;48.726;8.892;2024-03-02T08:21:11;38.83;;;20.90;;
31594;SDS011;18200;48.726;8.892;2024-03-02T08:25:12;43.70;;;22.23;;
31594;SDS011;18200;48.726;8.892;2024-03-02T08:29:13;47.20;;;23.38;;
31594;SDS011;18200;48.726;8.892;2024-03-02T08:33:13;41.00;;;21.52;;
31594;SDS011;18200;48.726;8.892;2024-03-02T08:37:13;37.28;;;19.48;;
31594;SDS011;18200;48.726;8.892;2024-03-02T08:41:14;38.17;;;19.95;;
31594;SDS011;18200;48.726;8.892;2024-03-02T08:45:16;31.88;;;17.67;;
31594;SDS011;18200;48.726;8.892;2024-03-02T08:49:16;35.60;;;17.10;;
31594;SDS011;18200;48.726;8.892;2024-03-02T08:53:17;28.23;;;16.13;;
31594;SDS011;18200;48.726;8.892;2024-03-02T08:57:18;27.17;;;15.05;;
31594;SDS011;18200;48.726;8.892;2024-03-02T09:01:18;28.63;;;14.45;;
31594;SDS011;18200;48.726;8.892;2024-03-02T09:05:19;22.23;;;12.70;;
31594;SDS011;18200;48.726;8.892;2024-03-02T09:09:20;21.38;;;12.00;;
31594;SDS011;18200;48.726;8.892;2024-03-02T09:13:20;17.35;;;11.10;;
31594;SDS011;18200;48.726;8.892;2024-03-02T09:17:21;16.98;;;10.00;;
31594;SDS011;18200;48.726;8.892;2024-03-02T09:21:21;16.33;;;10.07;;
31594;SDS011;18200;48.726;8.892;2024-03-02T09:25:22;15.00;;;8.23;;
31594;SDS011;18200;48.726;8.892;2024-03-02T09:29:23;16.02;;;8.40;;
31594;SDS011;18200;48.726;8.892;2024-03-02T09:33:23;16.67;;;8.38;;
31594;SDS011;18200;48.726;8.892;2024-03-02T09:37:23;11.73;;;7.85;;
31594;SDS011;18200;48.726;8.892;2024-03-02T09:41:24;14.98;;;7.07;;
31594;SDS011;18200;48.726;8.892;2024-03-02T09:45:25;13.65;;;7.70;;
31594;SDS011;18200;48.726;8.892;2024-03-02T09:49:26;9.82;;;6.57;;
31594;SDS011;18200;48.726;8.892;2024-03-02T09:53:28;10.27;;;6.88;;
31594;SDS011;18200;48.726;8.892;2024-03-02T10:01:31;8.30;;;5.20;;
31594;SDS011;18200;48.726;8.892;2024-03-02T10:05:32;9.02;;;5.85;;
31594;SDS011;18200;48.726;8.892;2024-03-02T10:09:32;8.50;;;5.40;;
31594;SDS011;18200;48.726;8.892;2024-03-02T10:13:32;9.93;;;5.78;;
31594;SDS011;18200;48.726;8.892;2024-03-02T10:17:34;7.32;;;4.93;;
31594;SDS011;18200;48.726;8.892;2024-03-02T10:21:35;9.90;;;5.90;;
31594;SDS011;18200;48.726;8.892;2024-03-02T10:25:35;7.78;;;4.70;;
31594;SDS011;18200;48.726;8.892;2024-03-02T10:29:36;9.10;;;4.95;;
31594;SDS011;18200;48.726;8.892;2024-03-02T10:33:38;6.32;;;4.53;;
31594;SDS011;18200;48.726;8.892;2024-03-02T10:37:40;6.43;;;4.10;;
31594;SDS011;18200;48.726;8.892;2024-03-02T10:41:41;5.72;;;3.72;;
31594;SDS011;18200;48.726;8.892;2024-03-02T10:45:42;5.35;;;3.78;;
31594;SDS011;18200;48.726;8.892;2024-03-02T10:49:43;5.20;;;3.60;;
31594;SDS011;18200;48.726;8.892;2024-03-02T10:53:46;10.55;;;3.63;;
31594;SDS011;18200;48.726;8.892;2024-03-02T10:57:53;5.40;;;2.85;;
31594;SDS011;18200;48.726;8.892;2024-03-02T11:01:57;7.25;;;3.53;;
31594;SDS011;18200;48.726;8.892;2024-03-02T11:05:59;6.40;;;2.58;;
31594;SDS011;18200;48.726;8.892;2024-03-02T11:10:01;2.58;;;1.90;;
31594;SDS011;18200;48.726;8.892;2024-03-02T11:14:10;4.05;;;1.70;;
31594;SDS011;18200;48.726;8.892;2024-03-02T11:18:14;3.75;;;1.60;;
31594;SDS011;18200;48.726;8.892;2024-03-02T11:22:15;6.18;;;1.70;;
31594;SDS011;18200;48.726;8.892;2024-03-02T11:26:16;3.92;;;2.47;;
31594;SDS011;18200;48.726;8.892;2024-03-02T11:34:33;7.78;;;3.08;;
31594;SDS011;18200;48.726;8.892;2024-03-02T11:38:35;3.13;;;2.08;;
31594;SDS011;18200;48.726;8.892;2024-03-02T11:42:36;3.35;;;1.55;;
31594;SDS011;18200;48.726;8.892;2024-03-02T11:46:39;1.63;;;1.50;;
31594;SDS011;18200;48.726;8.892;2024-03-02T11:50:58;3.45;;;1.55;;
31594;SDS011;18200;48.726;8.892;2024-03-02T11:55:00;1.33;;;1.15;;
31594;SDS011;18200;48.726;8.892;2024-03-02T11:59:03;2.28;;;1.10;;
31594;SDS011;18200;48.726;8.892;2024-03-02T12:03:07;2.42;;;1.00;;
31594;SDS011;18200;48.726;8.892;2024-03-02T12:07:09;4.07;;;1.00;;
31594;SDS011;18200;48.726;8.892;2024-03-02T12:11:12;1.30;;;0.80;;
31594;SDS011;18200;48.726;8.892;2024-03-02T12:15:13;1.25;;;0.50;;
31594;SDS011;18200;48.726;8.892;2024-03-02T12:19:14;0.85;;;0.70;;
31594;SDS011;18200;48.726;8.892;2024-03-02T12:23:15;1.40;;;0.70;;
31594;SDS011;18200;48.726;8.892;2024-03-02T12:27:16;0.75;;;0.75;;
31594;SDS011;18200;48.726;8.892;2024-03-02T12:31:18;2.38;;;0.90;;
31594;SDS011;18200;48.726;8.892;2024-03-02T12:35:19;3.95;;;1.90;;
31594;SDS011;18200;48.726;8.892;2024-03-02T12:39:19;0.98;;;0.80;;
31594;SDS011;18200;48.726;8.892;2024-03-02T12:43:20;1.75;;;0.80;;
31594;SDS011;18200;48.726;8.892;2024-03-02T12:47:20;1.17;;;0.70;;
31594;SDS011;18200;48.726;8.892;2024-03-02T12:51:21;3.88;;;0.70;;
31594;SDS011;18200;48.726;8.892;2024-03-02T12:55:21;1.20;;;0.80;;
31594;SDS011;18200;48.726;8.892;2024-03-02T12:59:23;0.82;;;0.70;;
31594;SDS011;18200;48.726;8.892;2024-03-02T13:03:26;1.70;;;1.00;;
31594;SDS011;18200;48.726;8.892;2024-03-02T13:07:29;1.40;;;0.60;;
31594;SDS011;18200;48.726;8.892;2024-03-02T13:11:29;1.42;;;0.80;;
31594;SDS011;18200;48.726;8.892;2024-03-02T13:15:30;1.88;;;1.00;;
31594;SDS011;18200;48.726;8.892;2024-03-02T13:19:33;3.33;;;1.60;;
31594;SDS011;18200;48.726;8.892;2024-03-02T13:23:34;1.30;;;1.10;;
31594;SDS011;18200;48.726;8.892;2024-03-02T13:27:34;6.43;;;1.80;;
31594;SDS011;18200;48.726;8.892;2024-03-02T13:31:35;2.78;;;1.40;;
31594;SDS011;18200;48.726;8.892;2024-03-02T13:35:35;1.42;;;0.98;;
31594;SDS011;18200;48.726;8.892;2024-03-02T13:39:36;8.48;;;1.70;;
31594;SDS011;18200;48.726;8.892;2024-03-02T13:43:42;1.90;;;1.20;;
31594;SDS011;18200;48.726;8.892;2024-03-02T13:47:45;6.15;;;1.38;;
31594;SDS011;18200;48.726;8.892;2024-03-02T13:51:45;1.63;;;0.98;;
31594;SDS011;18200;48.726;8.892;2024-03-02T13:55:45;1.60;;;1.20;;
31594;SDS011;18200;48.726;8.892;2024-03-02T13:59:46;2.05;;;1.40;;
31594;SDS011;18200;48.726;8.892;2024-03-02T14:03:46;2.20;;;1.40;;
31594;SDS011;18200;48.726;8.892;2024-03-02T14:07:47;4.82;;;1.35;;
31594;SDS011;18200;48.726;8.892;2024-03-02T14:11:49;2.05;;;1.15;;
31594;SDS011;18200;48.726;8.892;2024-03-02T14:15:50;2.53;;;1.30;;
31594;SDS011;18200;48.726;8.892;2024-03-02T14:19:50;1.98;;;1.30;;
31594;SDS011;18200;48.726;8.892;2024-03-02T14:23:51;1.23;;;0.98;;
31594;SDS011;18200;48.726;8.892;2024-03-02T14:27:51;2.25;;;1.30;;
31594;SDS011;18200;48.726;8.892;2024-03-02T14:31:52;2.80;;;1.30;;
31594;SDS011;18200;48.726;8.892;2024-03-02T14:35:52;2.65;;;0.98;;
31594;SDS011;18200;48.726;8.892;2024-03-02T14:39:52;1.05;;;0.93;;
31594;SDS011;18200;48.726;8.892;2024-03-02T14:43:53;1.65;;;1.13;;
31594;SDS011;18200;48.726;8.892;2024-03-02T14:47:53;4.13;;;1.48;;
31594;SDS011;18200;48.726;8.892;2024-03-02T14:51:54;1.92;;;1.30;;
31594;SDS011;18200;48.726;8.892;2024-03-02T14:55:54;2.80;;;1.27;;
31594;SDS011;18200;48.726;8.892;2024-03-02T14:59:55;2.95;;;1.17;;
31594;SDS011;18200;48.726;8.892;2024-03-02T15:03:55;1.80;;;1.08;;
31594;SDS011;18200;48.726;8.892;2024-03-02T15:07:56;1.10;;;1.00;;
31594;SDS011;18200;48.726;8.892;2024-03-02T15:11:59;1.83;;;0.98;;
31594;SDS011;18200;48.726;8.892;2024-03-02T15:15:59;1.00;;;0.85;;
31594;SDS011;18200;48.726;8.892;2024-03-02T15:20:00;1.88;;;1.05;;
31594;SDS011;18200;48.726;8.892;2024-03-02T15:24:00;3.28;;;1.02;;
31594;SDS011;18200;48.726;8.892;2024-03-02T15:28:01;2.25;;;1.27;;
31594;SDS011;18200;48.726;8.892;2024-03-02T15:32:02;3.08;;;1.02;;
31594;SDS011;18200;48.726;8.892;2024-03-02T15:36:05;2.83;;;1.10;;
31594;SDS011;18200;48.726;8.892;2024-03-02T15:40:07;2.92;;;1.13;;
31594;SDS011;18200;48.726;8.892;2024-03-02T15:44:08;1.52;;;1.25;;
31594;SDS011;18200;48.726;8.892;2024-03-02T15:48:08;1.33;;;1.00;;
31594;SDS011;18200;48.726;8.892;2024-03-02T15:52:09;1.98;;;1.00;;
31594;SDS011;18200;48.726;8.892;2024-03-02T15:56:09;1.70;;;0.98;;
31594;SDS011;18200;48.726;8.892;2024-03-02T16:00:10;3.30;;;2.25;;
31594;SDS011;18200;48.726;8.892;2024-03-02T16:04:13;2.15;;;1.70;;
31594;SDS011;18200;48.726;8.892;2024-03-02T16:08:14;3.97;;;2.50;;
31594;SDS011;18200;48.726;8.892;2024-03-02T16:12:15;12.13;;;6.68;;
31594;SDS011;18200;48.726;8.892;2024-03-02T16:16:15;45.60;;;21.70;;
31594;SDS011;18200;48.726;8.892;2024-03-02T16:20:16;8.32;;;4.32;;
31594;SDS011;18200;48.726;8.892;2024-03-02T16:24:16;2.15;;;1.50;;
31594;SDS011;18200;48.726;8.892;2024-03-02T16:28:17;2.22;;;1.35;;
31594;SDS011;18200;48.726;8.892;2024-03-02T16:32:18;4.13;;;2.00;;
31594;SDS011;18200;48.726;8.892;2024-03-02T16:36:18;2.92;;;1.52;;
31594;SDS011;18200;48.726;8.892;2024-03-02T16:40:18;2.67;;;1.45;;
31594;SDS011;18200;48.726;8.892;2024-03-02T16:44:19;2.17;;;1.20;;
31594;SDS011;18200;48.726;8.892;2024-03-02T16:48:19;12.68;;;5.55;;
31594;SDS011;18200;48.726;8.892;2024-03-02T16:52:20;10.43;;;6.35;;
31594;SDS011;18200;48.726;8.892;2024-03-02T16:56:23;4.85;;;2.95;;
31594;SDS011;18200;48.726;8.892;2024-03-02T17:00:24;3.72;;;2.35;;
31594;SDS011;18200;48.726;8.892;2024-03-02T17:04:24;6.18;;;4.07;;
31594;SDS011;18200;48.726;8.892;2024-03-02T17:08:26;4.80;;;3.50;;
31594;SDS011;18200;48.726;8.892;2024-03-02T17:12:26;5.10;;;2.80;;
31594;SDS011;18200;48.726;8.892;2024-03-02T17:16:27;5.57;;;2.28;;
31594;SDS011;18200;48.726;8.892;2024-03-02T17:20:27;3.63;;;2.13;;
31594;SDS011;18200;48.726;8.892;2024-03-02T17:24:28;4.30;;;2.40;;
31594;SDS011;18200;48.726;8.892;2024-03-02T17:28:28;4.90;;;3.35;;
31594;SDS011;18200;48.726;8.892;2024-03-02T17:32:29;6.30;;;3.10;;
31594;SDS011;18200;48.726;8.892;2024-03-02T17:36:30;7.70;;;4.30;;
31594;SDS011;18200;48.726;8.892;2024-03-02T17:40:31;4.07;;;2.40;;
31594;SDS011;18200;48.726;8.892;2024-03-02T17:44:31;7.97;;;4.45;;
31594;SDS011;18200;48.726;8.892;2024-03-02T17:48:32;123.68;;;33.22;;
31594;SDS011;18200;48.726;8.892;2024-03-02T17:52:32;34.30;;;10.75;;
31594;SDS011;18200;48.726;8.892;2024-03-02T17:56:33;28.52;;;9.65;;
31594;SDS011;18200;48.726;8.892;2024-03-02T18:00:33;10.98;;;5.60;;
31594;SDS011;18200;48.726;8.892;2024-03-02T18:04:33;7.18;;;4.20;;
31594;SDS011;18200;48.726;8.892;2024-03-02T18:08:35;5.32;;;3.67;;
31594;SDS011;18200;48.726;8.892;2024-03-02T18:12:35;6.38;;;3.70;;
31594;SDS011;18200;48.726;8.892;2024-03-02T18:16:35;6.78;;;4.38;;
31594;SDS011;18200;48.726;8.892;2024-03-02T18:20:36;14.25;;;6.95;;
31594;SDS011;18200;48.726;8.892;2024-03-02T18:24:38;12.05;;;5.93;;
31594;SDS011;18200;48.726;8.892;2024-03-02T18:28:38;8.95;;;5.78;;
31594;SDS011;18200;48.726;8.892;2024-03-02T18:32:39;14.80;;;9.02;;
31594;SDS011;18200;48.726;8.892;2024-03-02T18:36:39;22.77;;;13.80;;
31594;SDS011;18200;48.726;8.892;2024-03-02T18:40:39;18.23;;;11.90;;
31594;SDS011;18200;48.726;8.892;2024-03-02T18:44:41;29.20;;;21.90;;
31594;SDS011;18200;48.726;8.892;2024-03-02T18:48:42;42.88;;;29.70;;
31594;SDS011;18200;48.726;8.892;2024-03-02T18:52:43;24.38;;;16.08;;
31594;SDS011;18200;48.726;8.892;2024-03-02T18:56:44;36.92;;;20.70;;
31594;SDS011;18200;48.726;8.892;2024-03-02T19:00:44;39.38;;;19.38;;
31594;SDS011;18200;48.726;8.892;2024-03-02T19:04:45;46.10;;;26.10;;
31594;SDS011;18200;48.726;8.892;2024-03-02T19:08:47;39.00;;;21.02;;
31594;SDS011;18200;48.726;8.892;2024-03-02T19:12:48;39.10;;;21.23;;
31594;SDS011;18200;48.726;8.892;2024-03-02T19:16:49;35.10;;;19.05;;
31594;SDS011;18200;48.726;8.892;2024-03-02T19:20:49;33.42;;;19.42;;
31594;SDS011;18200;48.726;8.892;2024-03-02T19:24:51;34.63;;;18.88;;
31594;SDS011;18200;48.726;8.892;2024-03-02T19:28:51;33.70;;;19.63;;
31594;SDS011;18200;48.726;8.892;2024-03-02T19:32:52;36.20;;;21.08;;
31594;SDS011;18200;48.726;8.892;2024-03-02T19:36:52;39.80;;;22.92;;
31594;SDS011;18200;48.726;8.892;2024-03-02T19:40:54;40.58;;;23.75;;
31594;SDS011;18200;48.726;8.892;2024-03-02T19:44:55;34.03;;;20.70;;
31594;SDS011;18200;48.726;8.892;2024-03-02T19:48:55;36.58;;;22.20;;
31594;SDS011;18200;48.726;8.892;2024-03-02T19:52:56;38.92;;;21.80;;
31594;SDS011;18200;48.726;8.892;2024-03-02T19:56:57;34.70;;;21.27;;
31594;SDS011;18200;48.726;8.892;2024-03-02T20:00:57;39.38;;;21.30;;
31594;SDS011;18200;48.726;8.892;2024-03-02T20:04:57;38.03;;;20.83;;
31594;SDS011;18200;48.726;8.892;2024-03-02T20:08:58;39.33;;;21.40;;
31594;SDS011;18200;48.726;8.892;2024-03-02T20:12:58;52.67;;;27.75;;
31594;SDS011;18200;48.726;8.892;2024-03-02T20:17:00;49.75;;;23.95;;
31594;SDS011;18200;48.726;8.892;2024-03-02T20:21:01;37.03;;;21.38;;
31594;SDS011;18200;48.726;8.892;2024-03-02T20:25:01;34.85;;;19.98;;
31594;SDS011;18200;48.726;8.892;2024-03-02T20:29:02;36.72;;;21.60;;
31594;SDS011;18200;48.726;8.892;2024-03-02T20:33:03;38.22;;;21.70;;
31594;SDS011;18200;48.726;8.892;2024-03-02T20:37:04;36.65;;;20.92;;
31594;SDS011;18200;48.726;8.892;2024-03-02T20:41:04;39.30;;;21.33;;
31594;SDS011;18200;48.726;8.892;2024-03-02T20:45:05;36.00;;;21.13;;
31594;SDS011;18200;48.726;8.892;2024-03-02T20:49:05;37.95;;;20.35;;
31594;SDS011;18200;48.726;8.892;2024-03-02T20:53:07;43.55;;;23.33;;
31594;SDS011;18200;48.726;8.892;2024-03-02T20:57:07;47.15;;;24.05;;
31594;SDS011;18200;48.726;8.892;2024-03-02T21:01:07;39.22;;;22.08;;
31594;SDS011;18200;48.726;8.892;2024-03-02T21:05:10;30.10;;;16.25;;
31594;SDS011;18200;48.726;8.892;2024-03-02T21:09:11;30.92;;;15.63;;
31594;SDS011;18200;48.726;8.892;2024-03-02T21:13:12;31.67;;;16.85;;
31594;SDS011;18200;48.726;8.892;2024-03-02T21:17:12;28.17;;;16.27;;
31594;SDS011;18200;48.726;8.892;2024-03-02T21:21:13;26.30;;;15.93;;
31594;SDS011;18200;48.726;8.892;2024-03-02T21:25:13;94.47;;;36.22;;
31594;SDS011;18200;48.726;8.892;2024-03-02T21:29:16;254.45;;;85.68;;
31594;SDS011;18200;48.726;8.892;2024-03-02T21:33:20;153.52;;;57.22;;
31594;SDS011;18200;48.726;8.892;2024-03-02T21:37:20;94.50;;;38.38;;
31594;SDS011;18200;48.726;8.892;2024-03-02T21:41:21;44.78;;;22.15;;
31594;SDS011;18200;48.726;8.892;2024-03-02T21:45:22;38.88;;;21.35;;
31594;SDS011;18200;48.726;8.892;2024-03-02T21:49:23;37.42;;;20.58;;
31594;SDS011;18200;48.726;8.892;2024-03-02T21:53:23;51.60;;;23.67;;
31594;SDS011;18200;48.726;8.892;2024-03-02T21:57:23;36.75;;;17.88;;
31594;SDS011;18200;48.726;8.892;2024-03-02T22:01:25;42.08;;;21.55;;
31594;SDS011;18200;48.726;8.892;2024-03-02T22:05:27;40.50;;;19.27;;
31594;SDS011;18200;48.726;8.892;2024-03-02T22:09:28;39.00;;;19.38;;
31594;SDS011;18200;48.726;8.892;2024-03-02T22:13:29;47.38;;;21.15;;
31594;SDS011;18200;48.726;8.892;2024-03-02T22:17:29;42.55;;;21.63;;
31594;SDS011;18200;48.726;8.892;2024-03-02T22:21:30;33.97;;;20.13;;
31594;SDS011;18200;48.726;8.892;2024-03-02T22:25:30;30.90;;;17.58;;
31594;SDS011;18200;48.726;8.892;2024-03-02T22:29:30;37.38;;;18.88;;
31594;SDS011;18200;48.726;8.892;2024-03-02T22:33:31;32.72;;;17.40;;
31594;SDS011;18200;48.726;8.892;2024-03-02T22:37:32;32.30;;;17.73;;
31594;SDS011;18200;48.726;8.892;2024-03-02T22:41:32;44.25;;;21.85;;
31594;SDS011;18200;48.726;8.892;2024-03-02T22:45:32;58.60;;;25.38;;
31594;SDS011;18200;48.726;8.892;2024-03-02T22:49:33;43.70;;;22.98;;
31594;SDS011;18200;48.726;8.892;2024-03-02T22:53:33;45.42;;;21.38;;
31594;SDS011;18200;48.726;8.892;2024-03-02T22:57:36;45.60;;;24.30;;
31594;SDS011;18200;48.726;8.892;2024-03-02T23:01:36;50.22;;;24.67;;
31594;SDS011;18200;48.726;8.892;2024-03-02T23:05:37;77.68;;;32.13;;
31594;SDS011;18200;48.726;8.892;2024-03-02T23:09:37;75.45;;;33.30;;
31594;SDS011;18200;48.726;8.892;2024-03-02T23:13:37;45.97;;;23.10;;
31594;SDS011;18200;48.726;8.892;2024-03-02T23:17:38;46.67;;;23.25;;
31594;SDS011;18200;48.726;8.892;2024-03-02T23:21:38;46.55;;;23.77;;
31594;SDS011;18200;48.726;8.892;2024-03-02T23:25:38;39.10;;;21.55;;
31594;SDS011;18200;48.726;8.892;2024-03-02T23:29:39;57.20;;;28.23;;
31594;SDS011;18200;48.726;8.892;2024-03-02T23:33:40;61.20;;;27.55;;
31594;SDS011;18200;48.726;8.892;2024-03-02T23:37:40;53.13;;;27.67;;
31594;SDS011;18200;48.726;8.892;2024-03-02T23:41:40;91.60;;;45.35;;
31594;SDS011;18200;48.726;8.892;2024-03-02T23:45:41;67.40;;;38.40;;
31594;SDS011;18200;48.726;8.892;2024-03-02T23:49:41;60.00;;;33.47;;
31594;SDS011;18200;48.726;8.892;2024-03-02T23:53:42;42.90;;;22.83;;
31594;SDS011;18200;48.726;8.892;2024-03-02T23:57:42;45.63;;;23.40;;
